createdAt,value
2022-09-12T00:00:32.000Z,0
2022-09-12T00:01:49.000Z,0
2022-09-12T00:03:05.000Z,0
2022-09-12T00:04:20.000Z,0
2022-09-12T00:05:36.622Z,0
2022-09-12T00:06:52.000Z,0
2022-09-12T00:08:08.000Z,0
2022-09-12T00:09:25.000Z,0
2022-09-12T00:10:41.000Z,0
2022-09-12T00:11:56.000Z,0
2022-09-12T00:13:12.000Z,0
2022-09-12T00:14:28.000Z,0
2022-09-12T00:15:45.000Z,0
2022-09-12T00:17:01.000Z,0
2022-09-12T00:18:17.000Z,0
2022-09-12T00:19:33.000Z,0
2022-09-12T00:20:49.000Z,0
2022-09-12T00:22:06.000Z,0
2022-09-12T00:23:22.000Z,0
2022-09-12T00:24:38.000Z,0
2022-09-12T00:25:54.000Z,0
2022-09-12T00:27:10.000Z,0
2022-09-12T00:28:26.000Z,0
2022-09-12T00:29:42.000Z,0
2022-09-12T00:30:58.000Z,0
2022-09-12T00:32:14.000Z,0
2022-09-12T00:33:30.000Z,0
2022-09-12T00:34:46.000Z,0
2022-09-12T00:36:03.000Z,0
2022-09-12T00:37:19.000Z,0
2022-09-12T00:38:35.000Z,0
2022-09-12T00:39:51.000Z,0
2022-09-12T00:41:07.000Z,0
2022-09-12T00:42:24.000Z,0
2022-09-12T00:43:40.000Z,0
2022-09-12T00:44:55.000Z,0
2022-09-12T00:46:11.000Z,0
2022-09-12T00:47:27.000Z,0
2022-09-12T00:48:44.000Z,0
2022-09-12T00:50:00.000Z,0
2022-09-12T00:51:16.000Z,0
2022-09-12T00:52:32.000Z,0
2022-09-12T00:53:48.000Z,0
2022-09-12T00:55:04.000Z,0
2022-09-12T00:56:21.000Z,0
2022-09-12T00:57:37.000Z,0
2022-09-12T00:58:53.000Z,0
2022-09-12T01:00:09.000Z,0
2022-09-12T01:01:24.000Z,0
2022-09-12T01:02:41.000Z,0
2022-09-12T01:03:57.000Z,0
2022-09-12T01:05:13.000Z,0
2022-09-12T01:06:29.000Z,0
2022-09-12T01:07:45.000Z,0
2022-09-12T01:09:02.000Z,0
2022-09-12T01:10:18.000Z,0
2022-09-12T01:11:34.000Z,0
2022-09-12T01:12:50.000Z,0
2022-09-12T01:14:06.000Z,0
2022-09-12T01:15:22.000Z,0
2022-09-12T01:16:39.000Z,0
2022-09-12T01:17:54.000Z,0
2022-09-12T01:19:10.000Z,0
2022-09-12T01:20:26.000Z,0
2022-09-12T01:21:42.000Z,0
2022-09-12T01:22:59.000Z,0
2022-09-12T01:24:15.000Z,0
2022-09-12T01:25:31.000Z,0
2022-09-12T01:26:47.000Z,0
2022-09-12T01:28:03.000Z,0
2022-09-12T01:29:20.000Z,0
2022-09-12T01:30:36.000Z,0
2022-09-12T01:31:52.000Z,0
2022-09-12T01:33:08.000Z,0
2022-09-12T01:34:23.000Z,0
2022-09-12T01:35:40.000Z,0
2022-09-12T01:36:56.000Z,0
2022-09-12T01:38:12.000Z,0
2022-09-12T01:39:28.000Z,0
2022-09-12T01:40:44.000Z,0
2022-09-12T01:42:00.000Z,0
2022-09-12T01:43:17.000Z,0
2022-09-12T01:44:33.000Z,0
2022-09-12T01:45:49.000Z,0
2022-09-12T01:47:05.000Z,0
2022-09-12T01:48:21.000Z,0
2022-09-12T01:49:38.000Z,0
2022-09-12T01:50:54.000Z,0
2022-09-12T01:52:10.000Z,0
2022-09-12T01:53:26.000Z,0
2022-09-12T01:54:42.000Z,0
2022-09-12T01:55:59.000Z,0
2022-09-12T01:57:15.000Z,0
2022-09-12T01:58:31.000Z,0
2022-09-12T01:59:47.000Z,0
2022-09-12T02:01:03.000Z,0
2022-09-12T02:02:20.000Z,0
2022-09-12T02:03:36.000Z,0
2022-09-12T02:04:52.000Z,0
2022-09-12T02:06:08.000Z,0
2022-09-12T02:07:23.000Z,0
2022-09-12T02:08:40.000Z,0
2022-09-12T02:09:56.000Z,0
2022-09-12T02:11:12.000Z,0
2022-09-12T02:12:28.000Z,0
2022-09-12T02:13:44.000Z,0
2022-09-12T02:15:00.000Z,0
2022-09-12T02:16:17.000Z,0
2022-09-12T02:17:33.000Z,0
2022-09-12T02:18:49.000Z,0
2022-09-12T02:20:05.000Z,0
2022-09-12T02:21:21.000Z,0
2022-09-12T02:22:38.000Z,0
2022-09-12T02:23:53.000Z,0
2022-09-12T02:25:09.000Z,0
2022-09-12T02:26:25.000Z,0
2022-09-12T02:27:41.000Z,0
2022-09-12T02:28:58.000Z,0
2022-09-12T02:30:14.000Z,0
2022-09-12T02:31:30.000Z,0
2022-09-12T02:32:46.000Z,0
2022-09-12T02:34:02.000Z,0
2022-09-12T02:35:18.000Z,0
2022-09-12T02:36:35.000Z,0
2022-09-12T02:37:51.000Z,0
2022-09-12T02:39:07.000Z,0
2022-09-12T02:40:22.000Z,0
2022-09-12T02:41:38.000Z,0
2022-09-12T02:42:55.000Z,0
2022-09-12T02:44:11.000Z,0
2022-09-12T02:45:27.000Z,0
2022-09-12T02:46:43.000Z,0
2022-09-12T02:47:59.000Z,0
2022-09-12T02:49:16.000Z,0
2022-09-12T02:50:32.000Z,0
2022-09-12T02:51:48.000Z,0
2022-09-12T02:53:04.000Z,0
2022-09-12T02:54:20.000Z,0
2022-09-12T02:55:36.000Z,0
2022-09-12T02:56:52.000Z,0
2022-09-12T02:58:08.000Z,0
2022-09-12T02:59:24.000Z,0
2022-09-12T03:00:40.000Z,0
2022-09-12T03:01:56.000Z,0
2022-09-12T03:03:13.000Z,0
2022-09-12T03:04:29.000Z,0
2022-09-12T03:05:45.000Z,0
2022-09-12T03:07:01.000Z,0
2022-09-12T03:08:17.000Z,0
2022-09-12T03:09:34.000Z,0
2022-09-12T03:10:50.000Z,0
2022-09-12T03:12:06.000Z,0
2022-09-12T03:13:21.000Z,0
2022-09-12T03:14:37.000Z,0
2022-09-12T03:15:54.000Z,0
2022-09-12T03:17:10.000Z,0
2022-09-12T03:18:26.000Z,0
2022-09-12T03:19:42.000Z,0
2022-09-12T03:20:58.000Z,0
2022-09-12T03:22:14.000Z,0
2022-09-12T03:23:31.000Z,0
2022-09-12T03:24:47.000Z,0
2022-09-12T03:26:03.000Z,0
2022-09-12T03:27:19.000Z,0
2022-09-12T03:28:35.000Z,0
2022-09-12T03:29:51.000Z,0
2022-09-12T03:31:07.000Z,0
2022-09-12T03:32:23.000Z,0
2022-09-12T03:33:39.000Z,0
2022-09-12T03:34:55.000Z,0
2022-09-12T03:36:12.000Z,0
2022-09-12T03:37:28.000Z,0
2022-09-12T03:38:44.000Z,0
2022-09-12T03:40:00.000Z,0
2022-09-12T03:41:16.000Z,0
2022-09-12T03:42:32.000Z,0
2022-09-12T03:43:49.000Z,0
2022-09-12T03:45:05.000Z,0
2022-09-12T03:46:20.000Z,0
2022-09-12T03:47:36.000Z,0
2022-09-12T03:48:52.000Z,0
2022-09-12T03:50:09.000Z,0
2022-09-12T03:51:25.000Z,0
2022-09-12T03:52:41.000Z,0
2022-09-12T03:53:57.000Z,0
2022-09-12T03:55:13.000Z,0
2022-09-12T03:56:30.000Z,0
2022-09-12T03:57:46.000Z,0
2022-09-12T03:59:02.000Z,0
2022-09-12T04:00:18.000Z,0
2022-09-12T04:01:34.000Z,0
2022-09-12T04:02:50.000Z,0
2022-09-12T04:04:06.000Z,0
2022-09-12T04:05:22.000Z,0
2022-09-12T04:06:38.000Z,0
2022-09-12T04:07:54.000Z,0
2022-09-12T04:09:10.000Z,0
2022-09-12T04:10:27.000Z,0
2022-09-12T04:11:43.000Z,0
2022-09-12T04:12:59.000Z,0
2022-09-12T04:14:15.000Z,0
2022-09-12T04:15:31.000Z,0
2022-09-12T04:16:48.000Z,0
2022-09-12T04:18:04.000Z,0
2022-09-12T04:19:19.000Z,0
2022-09-12T04:20:35.000Z,0
2022-09-12T04:21:51.000Z,0
2022-09-12T04:23:08.000Z,0
2022-09-12T04:24:24.000Z,4
2022-09-12T04:25:40.000Z,4
2022-09-12T04:26:55.000Z,0
2022-09-12T04:28:11.000Z,4
2022-09-12T04:29:27.000Z,4
2022-09-12T04:30:44.000Z,4
2022-09-12T04:32:00.000Z,8
2022-09-12T04:33:16.000Z,4
2022-09-12T04:34:32.954Z,8
2022-09-12T04:35:48.000Z,12
2022-09-12T04:37:05.000Z,16
2022-09-12T04:38:21.000Z,20
2022-09-12T04:39:37.000Z,24
2022-09-12T04:40:53.000Z,24
2022-09-12T04:42:09.000Z,32
2022-09-12T04:43:25.000Z,40
2022-09-12T04:44:41.000Z,48
2022-09-12T04:45:57.000Z,60
2022-09-12T04:47:13.000Z,76
2022-09-12T04:48:29.000Z,92
2022-09-12T04:49:46.000Z,108
2022-09-12T04:51:02.000Z,132
2022-09-12T04:52:18.000Z,152
2022-09-12T04:53:34.000Z,176
2022-09-12T04:54:50.000Z,196
2022-09-12T04:56:06.000Z,216
2022-09-12T04:57:23.000Z,236
2022-09-12T04:58:39.000Z,264
2022-09-12T04:59:54.000Z,292
2022-09-12T05:01:10.000Z,324
2022-09-12T05:02:26.000Z,356
2022-09-12T05:03:43.000Z,388
2022-09-12T05:04:59.000Z,424
2022-09-12T05:06:15.000Z,460
2022-09-12T05:07:31.000Z,508
2022-09-12T05:08:47.000Z,556
2022-09-12T05:10:04.000Z,612
2022-09-12T05:11:20.000Z,668
2022-09-12T05:12:36.000Z,728
2022-09-12T05:13:52.000Z,792
2022-09-12T05:15:08.000Z,864
2022-09-12T05:16:23.000Z,928
2022-09-12T05:17:40.000Z,1016
2022-09-12T05:18:56.000Z,1084
2022-09-12T05:20:12.000Z,1168
2022-09-12T05:21:28.000Z,1248
2022-09-12T05:22:44.000Z,1352
2022-09-12T05:24:01.000Z,1436
2022-09-12T05:25:17.000Z,1472
2022-09-12T05:26:33.000Z,1544
2022-09-12T05:27:49.000Z,1684
2022-09-12T05:29:05.000Z,1780
2022-09-12T05:30:22.000Z,1812
2022-09-12T05:31:38.000Z,1976
2022-09-12T05:32:53.000Z,2172
2022-09-12T05:34:09.000Z,2328
2022-09-12T05:35:25.000Z,2440
2022-09-12T05:36:42.000Z,2488
2022-09-12T05:37:58.000Z,2432
2022-09-12T05:39:14.000Z,2348
2022-09-12T05:40:30.000Z,2356
2022-09-12T05:41:46.000Z,2388
2022-09-12T05:43:02.000Z,2432
2022-09-12T05:44:19.000Z,2496
2022-09-12T05:45:35.000Z,2588
2022-09-12T05:46:51.000Z,2760
2022-09-12T05:48:07.000Z,2964
2022-09-12T05:49:22.000Z,3124
2022-09-12T05:50:39.000Z,3344
2022-09-12T05:51:55.000Z,3576
2022-09-12T05:53:11.000Z,3616
2022-09-12T05:54:27.000Z,3412
2022-09-12T05:55:43.000Z,3324
2022-09-12T05:57:00.000Z,3240
2022-09-12T05:58:16.000Z,3620
2022-09-12T05:59:32.000Z,3688
2022-09-12T06:00:48.000Z,3584
2022-09-12T06:02:04.000Z,3696
2022-09-12T06:03:21.000Z,3840
2022-09-12T06:04:37.000Z,4272
2022-09-12T06:05:52.000Z,4804
2022-09-12T06:07:08.000Z,5112
2022-09-12T06:08:24.000Z,5528
2022-09-12T06:09:40.000Z,6040
2022-09-12T06:10:57.000Z,6640
2022-09-12T06:12:13.000Z,6364
2022-09-12T06:13:29.000Z,5300
2022-09-12T06:14:45.000Z,5084
2022-09-12T06:16:01.000Z,5060
2022-09-12T06:17:18.000Z,5044
2022-09-12T06:18:34.000Z,5136
2022-09-12T06:19:50.000Z,5244
2022-09-12T06:21:06.000Z,5360
2022-09-12T06:22:21.000Z,5860
2022-09-12T06:23:38.000Z,7364
2022-09-12T06:24:54.000Z,8656
2022-09-12T06:26:10.000Z,9836
2022-09-12T06:27:26.000Z,10224
2022-09-12T06:28:42.000Z,9576
2022-09-12T06:29:59.000Z,10368
2022-09-12T06:31:15.000Z,11216
2022-09-12T06:32:31.000Z,10220
2022-09-12T06:33:47.000Z,8860
2022-09-12T06:35:03.000Z,7924
2022-09-12T06:36:19.000Z,8040
2022-09-12T06:37:36.000Z,7256
2022-09-12T06:38:51.000Z,6580
2022-09-12T06:40:07.000Z,6760
2022-09-12T06:41:23.000Z,7776
2022-09-12T06:42:39.000Z,8884
2022-09-12T06:43:56.000Z,9108
2022-09-12T06:45:12.000Z,8984
2022-09-12T06:46:28.000Z,8836
2022-09-12T06:47:44.000Z,7832
2022-09-12T06:49:00.000Z,7696
2022-09-12T06:50:17.000Z,7860
2022-09-12T06:51:33.000Z,8012
2022-09-12T06:52:49.000Z,8044
2022-09-12T06:54:05.000Z,8064
2022-09-12T06:55:20.000Z,8192
2022-09-12T06:56:37.000Z,8452
2022-09-12T06:57:53.000Z,8824
2022-09-12T06:59:09.000Z,10140
2022-09-12T07:00:25.000Z,14700
2022-09-12T07:01:41.000Z,16832
2022-09-12T07:02:57.000Z,17824
2022-09-12T07:04:14.000Z,18560
2022-09-12T07:05:30.000Z,16640
2022-09-12T07:06:46.000Z,11956
2022-09-12T07:08:02.000Z,9648
2022-09-12T07:09:18.000Z,9748
2022-09-12T07:10:35.000Z,9916
2022-09-12T07:11:50.000Z,9128
2022-09-12T07:13:06.000Z,8796
2022-09-12T07:14:22.000Z,8904
2022-09-12T07:15:38.000Z,9104
2022-09-12T07:16:55.000Z,9244
2022-09-12T07:18:11.000Z,9376
2022-09-12T07:19:27.000Z,9484
2022-09-12T07:20:43.000Z,9580
2022-09-12T07:21:59.000Z,9680
2022-09-12T07:23:15.000Z,9736
2022-09-12T07:24:32.000Z,9800
2022-09-12T07:25:48.000Z,9876
2022-09-12T07:27:04.000Z,9928
2022-09-12T07:28:19.000Z,9940
2022-09-12T07:29:35.000Z,9964
2022-09-12T07:30:52.000Z,9996
2022-09-12T07:32:08.000Z,10004
2022-09-12T07:33:24.490Z,9980
2022-09-12T07:34:40.000Z,9956
2022-09-12T07:35:56.000Z,9956
2022-09-12T07:37:13.000Z,10012
2022-09-12T07:38:29.000Z,10056
2022-09-12T07:39:45.000Z,10124
2022-09-12T07:41:01.000Z,10188
2022-09-12T07:42:17.807Z,10264
2022-09-12T07:43:33.000Z,10368
2022-09-12T07:44:49.000Z,10496
2022-09-12T07:46:05.000Z,10584
2022-09-12T07:47:21.000Z,10524
2022-09-12T07:48:37.000Z,10452
2022-09-12T07:49:53.000Z,10444
2022-09-12T07:51:10.000Z,10424
2022-09-12T07:52:26.000Z,10412
2022-09-12T07:53:42.000Z,10428
2022-09-12T07:54:58.000Z,10392
2022-09-12T07:56:14.000Z,10320
2022-09-12T07:57:31.000Z,10324
2022-09-12T07:58:47.000Z,10360
2022-09-12T08:00:03.000Z,10432
2022-09-12T08:01:18.000Z,10540
2022-09-12T08:02:34.000Z,10648
2022-09-12T08:03:51.000Z,10732
2022-09-12T08:05:07.000Z,10768
2022-09-12T08:06:23.000Z,10800
2022-09-12T08:07:39.000Z,10836
2022-09-12T08:08:55.000Z,10944
2022-09-12T08:10:11.000Z,11092
2022-09-12T08:11:28.000Z,11280
2022-09-12T08:12:44.000Z,11484
2022-09-12T08:14:00.000Z,11796
2022-09-12T08:15:16.000Z,12004
2022-09-12T08:16:32.000Z,12012
2022-09-12T08:17:48.000Z,12076
2022-09-12T08:19:04.000Z,12252
2022-09-12T08:20:20.000Z,12324
2022-09-12T08:21:36.000Z,12216
2022-09-12T08:22:52.000Z,12260
2022-09-12T08:24:09.000Z,12192
2022-09-12T08:25:25.000Z,12176
2022-09-12T08:26:41.000Z,12192
2022-09-12T08:27:57.000Z,12212
2022-09-12T08:29:13.000Z,12236
2022-09-12T08:30:30.000Z,12236
2022-09-12T08:31:46.000Z,12208
2022-09-12T08:33:02.000Z,12196
2022-09-12T08:34:17.000Z,12192
2022-09-12T08:35:33.000Z,12184
2022-09-12T08:36:49.000Z,12196
2022-09-12T08:38:06.000Z,12212
2022-09-12T08:39:22.000Z,12276
2022-09-12T08:40:38.000Z,12376
2022-09-12T08:41:53.000Z,12512
2022-09-12T08:43:09.000Z,12656
2022-09-12T08:44:26.000Z,12756
2022-09-12T08:45:42.000Z,12884
2022-09-12T08:46:58.000Z,12992
2022-09-12T08:48:14.000Z,13084
2022-09-12T08:49:30.000Z,13188
2022-09-12T08:50:47.000Z,13308
2022-09-12T08:52:03.000Z,13468
2022-09-12T08:53:19.000Z,13784
2022-09-12T08:54:35.000Z,15008
2022-09-12T08:55:51.000Z,15920
2022-09-12T08:57:08.000Z,16324
2022-09-12T08:58:23.000Z,15072
2022-09-12T08:59:39.000Z,14056
2022-09-12T09:00:55.000Z,14256
2022-09-12T09:02:11.000Z,14316
2022-09-12T09:03:27.000Z,14260
2022-09-12T09:04:44.000Z,14160
2022-09-12T09:06:00.000Z,14216
2022-09-12T09:07:16.000Z,14516
2022-09-12T09:08:32.000Z,14916
2022-09-12T09:09:48.000Z,15072
2022-09-12T09:11:05.000Z,15372
2022-09-12T09:12:21.000Z,15772
2022-09-12T09:13:37.000Z,16204
2022-09-12T09:14:52.000Z,16816
2022-09-12T09:16:08.000Z,17080
2022-09-12T09:17:25.000Z,17016
2022-09-12T09:18:41.000Z,16716
2022-09-12T09:19:57.000Z,16432
2022-09-12T09:21:13.000Z,16704
2022-09-12T09:22:29.000Z,16156
2022-09-12T09:23:46.000Z,15372
2022-09-12T09:25:02.000Z,15032
2022-09-12T09:26:18.000Z,14216
2022-09-12T09:27:34.000Z,13632
2022-09-12T09:28:50.000Z,13096
2022-09-12T09:30:06.000Z,12700
2022-09-12T09:31:22.000Z,12268
2022-09-12T09:32:38.000Z,11980
2022-09-12T09:33:54.000Z,11912
2022-09-12T09:35:10.000Z,11764
2022-09-12T09:36:26.000Z,11548
2022-09-12T09:37:43.000Z,11596
2022-09-12T09:38:59.000Z,11832
2022-09-12T09:40:15.000Z,11948
2022-09-12T09:41:31.000Z,11808
2022-09-12T09:42:47.000Z,11884
2022-09-12T09:44:04.000Z,11724
2022-09-12T09:45:20.000Z,11928
2022-09-12T09:46:36.000Z,12588
2022-09-12T09:47:52.000Z,12460
2022-09-12T09:49:07.000Z,12876
2022-09-12T09:50:24.000Z,13632
2022-09-12T09:51:40.000Z,14340
2022-09-12T09:52:56.000Z,15348
2022-09-12T09:54:12.000Z,15880
2022-09-12T09:55:28.000Z,16656
2022-09-12T09:56:44.000Z,17504
2022-09-12T09:58:01.000Z,18496
2022-09-12T09:59:17.000Z,18528
2022-09-12T10:00:33.000Z,19200
2022-09-12T10:01:49.000Z,20096
2022-09-12T10:03:05.000Z,18432
2022-09-12T10:04:22.000Z,35040
2022-09-12T10:05:37.000Z,41376
2022-09-12T10:06:53.000Z,33728
2022-09-12T10:08:09.000Z,20352
2022-09-12T10:09:25.000Z,22304
2022-09-12T10:10:42.000Z,24512
2022-09-12T10:11:58.000Z,19104
2022-09-12T10:13:14.000Z,19264
2022-09-12T10:14:30.000Z,20544
2022-09-12T10:15:46.000Z,20480
2022-09-12T10:17:02.000Z,19968
2022-09-12T10:18:19.000Z,20640
2022-09-12T10:19:35.000Z,21312
2022-09-12T10:20:51.000Z,23040
2022-09-12T10:22:07.000Z,20384
2022-09-12T10:23:24.000Z,23744
2022-09-12T10:24:40.000Z,31008
2022-09-12T10:25:56.000Z,45216
2022-09-12T10:27:12.000Z,32736
2022-09-12T10:28:28.000Z,30016
2022-09-12T10:29:44.000Z,28480
2022-09-12T10:31:01.000Z,40064
2022-09-12T10:32:17.000Z,31520
2022-09-12T10:33:33.000Z,46976
2022-09-12T10:34:49.000Z,54144
2022-09-12T10:36:05.000Z,32320
2022-09-12T10:37:22.000Z,49344
2022-09-12T10:38:37.000Z,46784
2022-09-12T10:39:53.000Z,30880
2022-09-12T10:41:09.000Z,50720
2022-09-12T10:42:25.000Z,49920
2022-09-12T10:43:42.000Z,34592
2022-09-12T10:44:58.000Z,27104
2022-09-12T10:46:14.000Z,28256
2022-09-12T10:47:30.000Z,27200
2022-09-12T10:48:46.000Z,44928
2022-09-12T10:50:03.000Z,52384
2022-09-12T10:51:19.000Z,35904
2022-09-12T10:52:35.000Z,33440
2022-09-12T10:53:51.000Z,54816
2022-09-12T10:55:06.000Z,57728
2022-09-12T10:56:22.000Z,47648
2022-09-12T10:57:39.000Z,29696
2022-09-12T10:58:55.000Z,52256
2022-09-12T11:00:11.000Z,55808
2022-09-12T11:01:27.000Z,59744
2022-09-12T11:02:43.000Z,38816
2022-09-12T11:04:00.000Z,32736
2022-09-12T11:05:16.000Z,46144
2022-09-12T11:06:32.000Z,40672
2022-09-12T11:07:48.000Z,27744
2022-09-12T11:09:04.000Z,21408
2022-09-12T11:10:21.000Z,31712
2022-09-12T11:11:36.000Z,42688
2022-09-12T11:12:52.000Z,44256
2022-09-12T11:14:08.000Z,32544
2022-09-12T11:15:24.000Z,26528
2022-09-12T11:16:41.000Z,49440
2022-09-12T11:17:57.000Z,30624
2022-09-12T11:19:13.000Z,12184
2022-09-12T11:20:29.000Z,11460
2022-09-12T11:21:45.000Z,11224
2022-09-12T11:23:01.000Z,11272
2022-09-12T11:24:18.000Z,11620
2022-09-12T11:25:34.000Z,12300
2022-09-12T11:26:50.000Z,12416
2022-09-12T11:28:05.000Z,12400
2022-09-12T11:29:21.000Z,12824
2022-09-12T11:30:38.000Z,12620
2022-09-12T11:31:54.000Z,12000
2022-09-12T11:33:10.000Z,11620
2022-09-12T11:34:26.000Z,8700
2022-09-12T11:35:42.000Z,8904
2022-09-12T11:36:59.000Z,11472
2022-09-12T11:38:15.000Z,11332
2022-09-12T11:39:31.000Z,11532
2022-09-12T11:40:47.000Z,10792
2022-09-12T11:42:03.000Z,10568
2022-09-12T11:43:20.000Z,10588
2022-09-12T11:44:35.000Z,10552
2022-09-12T11:45:51.000Z,10840
2022-09-12T11:47:07.000Z,11300
2022-09-12T11:48:23.000Z,11316
2022-09-12T11:49:39.000Z,10844
2022-09-12T11:50:56.000Z,11168
2022-09-12T11:52:12.000Z,9480
2022-09-12T11:53:28.000Z,10240
2022-09-12T11:54:44.000Z,12956
2022-09-12T11:56:00.000Z,11668
2022-09-12T11:57:17.000Z,11420
2022-09-12T11:58:33.000Z,53120
2022-09-12T11:59:49.000Z,65760
2022-09-12T12:01:04.000Z,56256
2022-09-12T12:02:20.000Z,32128
2022-09-12T12:03:37.000Z,33664
2022-09-12T12:04:53.000Z,39488
2022-09-12T12:06:09.000Z,32032
2022-09-12T12:07:25.000Z,30720
2022-09-12T12:08:41.000Z,33824
2022-09-12T12:09:58.000Z,24896
2022-09-12T12:11:14.000Z,30496
2022-09-12T12:12:30.000Z,55296
2022-09-12T12:13:46.000Z,65568
2022-09-12T12:15:02.000Z,66848
2022-09-12T12:16:18.000Z,65600
2022-09-12T12:17:34.000Z,48928
2022-09-12T12:18:50.000Z,62944
2022-09-12T12:20:06.000Z,42688
2022-09-12T12:21:22.000Z,35968
2022-09-12T12:22:38.000Z,18592
2022-09-12T12:23:55.000Z,39168
2022-09-12T12:25:11.000Z,10840
2022-09-12T12:26:27.000Z,11748
2022-09-12T12:27:43.000Z,45696
2022-09-12T12:28:59.000Z,51840
2022-09-12T12:30:16.000Z,13980
2022-09-12T12:31:32.000Z,62176
2022-09-12T12:32:48.000Z,50272
2022-09-12T12:34:03.000Z,33504
2022-09-12T12:35:19.000Z,52352
2022-09-12T12:36:36.000Z,55456
2022-09-12T12:37:52.000Z,22112
2022-09-12T12:39:08.000Z,13496
2022-09-12T12:40:24.000Z,53504
2022-09-12T12:41:40.000Z,62080
2022-09-12T12:42:56.000Z,60416
2022-09-12T12:44:13.000Z,59200
2022-09-12T12:45:29.000Z,57568
2022-09-12T12:46:45.000Z,37056
2022-09-12T12:48:01.000Z,38880
2022-09-12T12:49:17.000Z,51552
2022-09-12T12:50:33.000Z,49312
2022-09-12T12:51:49.000Z,15616
2022-09-12T12:53:05.000Z,47552
2022-09-12T12:54:21.000Z,46912
2022-09-12T12:55:37.000Z,44160
2022-09-12T12:56:53.000Z,39520
2022-09-12T12:58:09.000Z,40032
2022-09-12T12:59:25.000Z,29376
2022-09-12T13:00:41.000Z,24384
2022-09-12T13:01:57.000Z,14412
2022-09-12T13:03:14.000Z,14928
2022-09-12T13:04:30.000Z,13308
2022-09-12T13:05:46.000Z,14452
2022-09-12T13:07:02.000Z,27936
2022-09-12T13:08:18.000Z,43264
2022-09-12T13:09:34.000Z,34944
2022-09-12T13:10:51.000Z,36640
2022-09-12T13:12:07.000Z,40576
2022-09-12T13:13:22.000Z,38400
2022-09-12T13:14:38.000Z,29088
2022-09-12T13:15:54.000Z,29152
2022-09-12T13:17:11.000Z,40960
2022-09-12T13:18:27.000Z,40128
2022-09-12T13:19:43.000Z,24224
2022-09-12T13:20:59.000Z,18112
2022-09-12T13:22:15.000Z,18752
2022-09-12T13:23:32.000Z,17344
2022-09-12T13:24:48.000Z,16536
2022-09-12T13:26:04.000Z,15912
2022-09-12T13:27:20.000Z,15388
2022-09-12T13:28:36.000Z,15064
2022-09-12T13:29:52.000Z,16032
2022-09-12T13:31:08.000Z,31136
2022-09-12T13:32:24.000Z,30560
2022-09-12T13:33:40.000Z,27424
2022-09-12T13:34:56.000Z,31776
2022-09-12T13:36:12.000Z,36704
2022-09-12T13:37:29.000Z,38624
2022-09-12T13:38:45.000Z,34368
2022-09-12T13:40:01.000Z,40640
2022-09-12T13:41:17.000Z,33248
2022-09-12T13:42:33.000Z,32448
2022-09-12T13:43:50.000Z,46816
2022-09-12T13:45:06.000Z,30016
2022-09-12T13:46:21.000Z,39584
2022-09-12T13:47:37.000Z,33472
2022-09-12T13:48:53.000Z,30784
2022-09-12T13:50:10.000Z,23264
2022-09-12T13:51:26.000Z,21856
2022-09-12T13:52:42.000Z,23008
2022-09-12T13:53:58.000Z,29888
2022-09-12T13:55:14.000Z,27232
2022-09-12T13:56:31.000Z,26336
2022-09-12T13:57:47.000Z,33696
2022-09-12T13:59:03.000Z,35008
2022-09-12T14:00:19.000Z,30080
2022-09-12T14:01:35.000Z,32480
2022-09-12T14:02:50.000Z,32256
2022-09-12T14:04:07.000Z,30080
2022-09-12T14:05:23.000Z,28480
2022-09-12T14:06:39.000Z,18592
2022-09-12T14:07:55.000Z,26400
2022-09-12T14:09:11.000Z,24128
2022-09-12T14:10:28.000Z,24320
2022-09-12T14:11:44.000Z,22080
2022-09-12T14:13:00.000Z,20736
2022-09-12T14:14:16.000Z,24512
2022-09-12T14:15:32.000Z,30048
2022-09-12T14:16:49.000Z,31232
2022-09-12T14:18:05.000Z,31520
2022-09-12T14:19:20.000Z,30496
2022-09-12T14:20:36.000Z,30208
2022-09-12T14:21:52.000Z,25152
2022-09-12T14:23:08.000Z,28032
2022-09-12T14:24:25.000Z,24704
2022-09-12T14:25:41.000Z,22176
2022-09-12T14:26:57.000Z,19872
2022-09-12T14:28:13.000Z,17952
2022-09-12T14:29:29.000Z,18880
2022-09-12T14:30:46.000Z,18304
2022-09-12T14:32:02.000Z,17952
2022-09-12T14:33:18.000Z,17568
2022-09-12T14:34:34.000Z,17472
2022-09-12T14:35:49.000Z,19296
2022-09-12T14:37:06.000Z,20576
2022-09-12T14:38:22.000Z,17248
2022-09-12T14:39:38.000Z,17824
2022-09-12T14:40:54.000Z,15348
2022-09-12T14:42:10.000Z,17056
2022-09-12T14:43:26.000Z,19360
2022-09-12T14:44:43.000Z,19328
2022-09-12T14:45:59.000Z,17984
2022-09-12T14:47:15.000Z,17408
2022-09-12T14:48:31.000Z,17504
2022-09-12T14:49:47.000Z,17664
2022-09-12T14:51:04.000Z,18176
2022-09-12T14:52:19.000Z,17376
2022-09-12T14:53:35.000Z,16120
2022-09-12T14:54:51.000Z,13812
2022-09-12T14:56:07.000Z,12268
2022-09-12T14:57:24.000Z,11888
2022-09-12T14:58:40.000Z,12208
2022-09-12T14:59:56.000Z,12120
2022-09-12T15:01:12.000Z,12548
2022-09-12T15:02:28.000Z,12520
2022-09-12T15:03:45.000Z,12440
2022-09-12T15:05:01.000Z,11816
2022-09-12T15:06:17.000Z,11740
2022-09-12T15:07:33.000Z,12296
2022-09-12T15:08:48.000Z,12992
2022-09-12T15:10:04.000Z,13224
2022-09-12T15:11:21.000Z,13140
2022-09-12T15:12:37.000Z,13912
2022-09-12T15:13:53.000Z,13320
2022-09-12T15:15:09.000Z,12676
2022-09-12T15:16:25.000Z,12884
2022-09-12T15:17:42.000Z,13076
2022-09-12T15:18:58.000Z,13572
2022-09-12T15:20:14.000Z,13492
2022-09-12T15:21:30.000Z,14940
2022-09-12T15:22:46.000Z,16256
2022-09-12T15:24:03.000Z,16416
2022-09-12T15:25:18.000Z,15968
2022-09-12T15:26:34.000Z,16544
2022-09-12T15:27:50.000Z,14784
2022-09-12T15:29:06.000Z,13704
2022-09-12T15:30:22.000Z,12152
2022-09-12T15:31:39.000Z,11796
2022-09-12T15:32:55.000Z,11292
2022-09-12T15:34:11.000Z,11588
2022-09-12T15:35:27.000Z,11924
2022-09-12T15:36:43.000Z,11580
2022-09-12T15:38:00.000Z,10768
2022-09-12T15:39:16.000Z,10892
2022-09-12T15:40:32.000Z,10432
2022-09-12T15:41:47.000Z,11136
2022-09-12T15:43:03.000Z,11016
2022-09-12T15:44:20.000Z,10196
2022-09-12T15:45:36.000Z,10272
2022-09-12T15:46:52.000Z,10088
2022-09-12T15:48:08.000Z,9524
2022-09-12T15:49:24.000Z,9604
2022-09-12T15:50:40.000Z,8248
2022-09-12T15:51:57.000Z,7292
2022-09-12T15:53:13.000Z,6920
2022-09-12T15:54:29.000Z,6704
2022-09-12T15:55:45.000Z,6504
2022-09-12T15:57:01.000Z,6332
2022-09-12T15:58:17.000Z,6324
2022-09-12T15:59:33.000Z,6536
2022-09-12T16:00:49.000Z,6512
2022-09-12T16:02:05.000Z,6552
2022-09-12T16:03:21.000Z,6688
2022-09-12T16:04:38.000Z,6292
2022-09-12T16:05:54.000Z,6168
2022-09-12T16:07:10.000Z,5964
2022-09-12T16:08:26.000Z,5864
2022-09-12T16:09:42.000Z,5792
2022-09-12T16:10:59.000Z,5720
2022-09-12T16:12:15.000Z,5552
2022-09-12T16:13:31.000Z,5432
2022-09-12T16:14:47.000Z,5452
2022-09-12T16:16:02.000Z,5392
2022-09-12T16:17:18.000Z,5312
2022-09-12T16:18:35.000Z,5372
2022-09-12T16:19:51.000Z,5396
2022-09-12T16:21:07.000Z,5336
2022-09-12T16:22:23.000Z,5640
2022-09-12T16:23:39.000Z,5804
2022-09-12T16:24:56.000Z,5884
2022-09-12T16:26:12.000Z,5880
2022-09-12T16:27:28.000Z,6040
2022-09-12T16:28:44.000Z,5668
2022-09-12T16:30:00.000Z,5460
2022-09-12T16:31:17.000Z,5608
2022-09-12T16:32:32.000Z,5760
2022-09-12T16:33:48.000Z,5532
2022-09-12T16:35:04.000Z,5144
2022-09-12T16:36:20.000Z,5396
2022-09-12T16:37:36.000Z,4876
2022-09-12T16:38:53.000Z,4968
2022-09-12T16:40:09.000Z,4880
2022-09-12T16:41:25.000Z,4440
2022-09-12T16:42:41.000Z,4240
2022-09-12T16:43:57.000Z,4120
2022-09-12T16:45:14.000Z,4080
2022-09-12T16:46:30.000Z,4060
2022-09-12T16:47:46.000Z,4132
2022-09-12T16:49:02.000Z,4152
2022-09-12T16:50:17.000Z,4168
2022-09-12T16:51:34.000Z,4228
2022-09-12T16:52:50.000Z,4236
2022-09-12T16:54:06.000Z,4140
2022-09-12T16:55:22.000Z,3996
2022-09-12T16:56:38.000Z,3752
2022-09-12T16:57:55.000Z,3512
2022-09-12T16:59:11.000Z,3376
2022-09-12T17:00:27.000Z,3264
2022-09-12T17:01:43.000Z,3212
2022-09-12T17:02:59.000Z,3176
2022-09-12T17:04:15.000Z,3096
2022-09-12T17:05:32.000Z,2952